Weather at Juan Santamaría International Airport

Public forecast

Using degrees Celsius for public forecast. Weather courtesy of forecast.io.

Current aviation weather report (METAR) for Juan Santamaría International Airport

2024/06/22 07:00 (retrieved 32 minutes ago)

MROC 220700Z 08001KT 9999 FEW030 21/20 A3009 NOSIG

Aviation forecast (TAF) for Juan Santamaría International Airport

2024/06/22 06:24 (retrieved 1 hour ago)

TAF MROC 220520Z 2206/2306 09005KT 9999 SCT010 TX28/2218Z TN19/2211Z BECMG 2214/2217 25006KT TEMPO 2219/2222 5000 TSRA SCT010CB TEMPO 2302/2306 3000 BR BKN002